sensor_id;sensor_type;location;lat;lon;timestamp;pressure;altitude;pressure_sealevel;temperature;humidity
9439;BME280;5176;42.622;25.386;2022-11-15T00:00:00;97898.59;;;10.73;100.00
9439;BME280;5176;42.622;25.386;2022-11-15T00:02:29;97894.19;;;10.74;100.00
9439;BME280;5176;42.622;25.386;2022-11-15T00:04:56;97891.03;;;10.67;100.00
9439;BME280;5176;42.622;25.386;2022-11-15T00:07:23;97891.03;;;10.67;100.00
9439;BME280;5176;42.622;25.386;2022-11-15T00:09:50;97882.34;;;10.67;100.00
9439;BME280;5176;42.622;25.386;2022-11-15T00:12:17;97889.13;;;10.71;100.00
9439;BME280;5176;42.622;25.386;2022-11-15T00:14:44;97891.97;;;10.66;100.00
9439;BME280;5176;42.622;25.386;2022-11-15T00:17:12;97883.41;;;10.62;100.00
9439;BME280;5176;42.622;25.386;2022-11-15T00:19:40;97876.56;;;10.60;100.00
9439;BME280;5176;42.622;25.386;2022-11-15T00:22:07;97881.50;;;10.66;100.00
9439;BME280;5176;42.622;25.386;2022-11-15T00:24:34;97880.88;;;10.61;100.00
9439;BME280;5176;42.622;25.386;2022-11-15T00:27:01;97874.72;;;10.62;100.00
9439;BME280;5176;42.622;25.386;2022-11-15T00:29:29;97875.56;;;10.62;100.00
9439;BME280;5176;42.622;25.386;2022-11-15T00:31:56;97864.22;;;10.62;100.00
9439;BME280;5176;42.622;25.386;2022-11-15T00:34:23;97865.56;;;10.69;100.00
9439;BME280;5176;42.622;25.386;2022-11-15T00:36:52;97858.91;;;10.63;100.00
9439;BME280;5176;42.622;25.386;2022-11-15T00:39:19;97871.00;;;10.66;100.00
9439;BME280;5176;42.622;25.386;2022-11-15T00:41:46;97859.66;;;10.66;100.00
9439;BME280;5176;42.622;25.386;2022-11-15T00:44:13;97861.13;;;10.71;100.00
9439;BME280;5176;42.622;25.386;2022-11-15T00:46:40;97856.81;;;10.70;100.00
9439;BME280;5176;42.622;25.386;2022-11-15T00:49:07;97843.75;;;10.69;100.00
9439;BME280;5176;42.622;25.386;2022-11-15T00:51:34;97850.53;;;10.73;100.00
9439;BME280;5176;42.622;25.386;2022-11-15T00:54:03;97847.06;;;10.72;100.00
9439;BME280;5176;42.622;25.386;2022-11-15T00:56:30;97845.53;;;10.68;100.00
9439;BME280;5176;42.622;25.386;2022-11-15T00:58:57;97837.44;;;10.73;100.00
9439;BME280;5176;42.622;25.386;2022-11-15T01:01:25;97843.50;;;10.73;100.00
9439;BME280;5176;42.622;25.386;2022-11-15T01:03:52;97843.69;;;10.70;100.00
9439;BME280;5176;42.622;25.386;2022-11-15T01:06:19;97844.94;;;10.63;100.00
9439;BME280;5176;42.622;25.386;2022-11-15T01:08:47;97842.25;;;10.64;100.00
9439;BME280;5176;42.622;25.386;2022-11-15T01:11:15;97835.38;;;10.62;100.00
9439;BME280;5176;42.622;25.386;2022-11-15T01:13:42;97824.38;;;10.55;100.00
9439;BME280;5176;42.622;25.386;2022-11-15T01:16:12;97824.03;;;10.61;100.00
9439;BME280;5176;42.622;25.386;2022-11-15T01:18:40;97830.22;;;10.60;100.00
9439;BME280;5176;42.622;25.386;2022-11-15T01:21:09;97826.75;;;10.60;100.00
9439;BME280;5176;42.622;25.386;2022-11-15T01:23:37;97827.44;;;10.63;100.00
9439;BME280;5176;42.622;25.386;2022-11-15T01:26:06;97818.13;;;10.58;100.00
9439;BME280;5176;42.622;25.386;2022-11-15T01:28:36;97821.84;;;10.54;100.00
9439;BME280;5176;42.622;25.386;2022-11-15T01:31:06;97826.44;;;10.66;100.00
9439;BME280;5176;42.622;25.386;2022-11-15T01:33:35;97826.19;;;10.71;100.00
9439;BME280;5176;42.622;25.386;2022-11-15T01:36:03;97831.34;;;10.72;100.00
9439;BME280;5176;42.622;25.386;2022-11-15T01:38:31;97809.50;;;10.56;100.00
9439;BME280;5176;42.622;25.386;2022-11-15T01:40:58;97812.81;;;10.59;100.00
9439;BME280;5176;42.622;25.386;2022-11-15T01:43:27;97806.13;;;10.54;100.00
9439;BME280;5176;42.622;25.386;2022-11-15T01:46:00;97810.44;;;10.55;100.00
9439;BME280;5176;42.622;25.386;2022-11-15T01:48:31;97794.03;;;10.51;100.00
9439;BME280;5176;42.622;25.386;2022-11-15T01:51:00;97804.09;;;10.59;100.00
9439;BME280;5176;42.622;25.386;2022-11-15T01:53:29;97818.22;;;10.72;100.00
9439;BME280;5176;42.622;25.386;2022-11-15T01:55:57;97822.63;;;10.72;100.00
9439;BME280;5176;42.622;25.386;2022-11-15T01:58:24;97801.06;;;10.67;100.00
9439;BME280;5176;42.622;25.386;2022-11-15T02:00:51;97810.59;;;10.68;100.00
9439;BME280;5176;42.622;25.386;2022-11-15T02:03:22;97809.66;;;10.69;100.00
9439;BME280;5176;42.622;25.386;2022-11-15T02:05:53;97803.06;;;10.61;100.00
9439;BME280;5176;42.622;25.386;2022-11-15T02:08:20;97813.66;;;10.60;100.00
9439;BME280;5176;42.622;25.386;2022-11-15T02:10:47;97810.84;;;10.63;100.00
9439;BME280;5176;42.622;25.386;2022-11-15T02:13:15;97808.31;;;10.61;100.00
9439;BME280;5176;42.622;25.386;2022-11-15T02:15:49;97809.09;;;10.63;100.00
9439;BME280;5176;42.622;25.386;2022-11-15T02:18:26;97801.66;;;10.72;100.00
9439;BME280;5176;42.622;25.386;2022-11-15T02:21:09;97804.19;;;10.73;100.00
9439;BME280;5176;42.622;25.386;2022-11-15T02:24:13;97801.81;;;10.69;100.00
9439;BME280;5176;42.622;25.386;2022-11-15T02:29:48;97790.38;;;10.70;100.00
9439;BME280;5176;42.622;25.386;2022-11-15T02:32:27;97800.63;;;10.74;100.00
9439;BME280;5176;42.622;25.386;2022-11-15T02:35:02;97799.88;;;10.72;100.00
9439;BME280;5176;42.622;25.386;2022-11-15T02:37:36;97801.75;;;10.70;100.00
9439;BME280;5176;42.622;25.386;2022-11-15T02:40:12;97801.91;;;10.67;100.00
9439;BME280;5176;42.622;25.386;2022-11-15T02:42:45;97795.81;;;10.67;100.00
9439;BME280;5176;42.622;25.386;2022-11-15T02:45:37;97800.53;;;10.76;100.00
9439;BME280;5176;42.622;25.386;2022-11-15T02:48:09;97800.47;;;10.77;100.00
9439;BME280;5176;42.622;25.386;2022-11-15T02:50:38;97802.50;;;10.72;100.00
9439;BME280;5176;42.622;25.386;2022-11-15T02:53:05;97795.38;;;10.74;100.00
9439;BME280;5176;42.622;25.386;2022-11-15T02:55:35;97798.50;;;10.81;100.00
9439;BME280;5176;42.622;25.386;2022-11-15T02:58:23;97782.28;;;10.74;100.00
9439;BME280;5176;42.622;25.386;2022-11-15T03:00:59;97792.06;;;10.86;100.00
9439;BME280;5176;42.622;25.386;2022-11-15T03:03:57;97798.84;;;10.90;100.00
9439;BME280;5176;42.622;25.386;2022-11-15T03:06:31;97779.16;;;10.83;100.00
9439;BME280;5176;42.622;25.386;2022-11-15T03:09:07;97800.78;;;10.87;100.00
9439;BME280;5176;42.622;25.386;2022-11-15T03:11:39;97782.19;;;10.76;100.00
9439;BME280;5176;42.622;25.386;2022-11-15T03:14:14;97789.38;;;10.72;100.00
9439;BME280;5176;42.622;25.386;2022-11-15T03:16:49;97786.66;;;10.74;100.00
9439;BME280;5176;42.622;25.386;2022-11-15T03:19:25;97790.88;;;10.76;100.00
9439;BME280;5176;42.622;25.386;2022-11-15T03:21:58;97794.44;;;10.75;100.00
9439;BME280;5176;42.622;25.386;2022-11-15T03:24:28;97788.44;;;10.73;100.00
9439;BME280;5176;42.622;25.386;2022-11-15T03:26:57;97796.31;;;10.73;100.00
9439;BME280;5176;42.622;25.386;2022-11-15T03:29:29;97791.81;;;10.75;100.00
9439;BME280;5176;42.622;25.386;2022-11-15T03:32:01;97784.22;;;10.71;100.00
9439;BME280;5176;42.622;25.386;2022-11-15T03:34:34;97782.50;;;10.70;100.00
9439;BME280;5176;42.622;25.386;2022-11-15T03:37:05;97781.66;;;10.69;100.00
9439;BME280;5176;42.622;25.386;2022-11-15T03:39:33;97783.28;;;10.72;100.00
9439;BME280;5176;42.622;25.386;2022-11-15T03:42:09;97775.34;;;10.73;100.00
9439;BME280;5176;42.622;25.386;2022-11-15T03:44:45;97769.00;;;10.77;100.00
9439;BME280;5176;42.622;25.386;2022-11-15T03:47:17;97770.69;;;10.78;100.00
9439;BME280;5176;42.622;25.386;2022-11-15T03:49:52;97764.09;;;10.71;100.00
9439;BME280;5176;42.622;25.386;2022-11-15T03:52:21;97760.78;;;10.68;100.00
9439;BME280;5176;42.622;25.386;2022-11-15T03:54:50;97765.03;;;10.70;100.00
9439;BME280;5176;42.622;25.386;2022-11-15T03:57:18;97757.16;;;10.70;100.00
9439;BME280;5176;42.622;25.386;2022-11-15T03:59:45;97753.50;;;10.73;100.00
9439;BME280;5176;42.622;25.386;2022-11-15T04:02:13;97745.66;;;10.73;100.00
9439;BME280;5176;42.622;25.386;2022-11-15T04:04:40;97749.31;;;10.70;100.00
9439;BME280;5176;42.622;25.386;2022-11-15T04:07:09;97750.06;;;10.72;100.00
9439;BME280;5176;42.622;25.386;2022-11-15T04:09:36;97746.59;;;10.72;100.00
9439;BME280;5176;42.622;25.386;2022-11-15T04:12:24;97751.84;;;10.72;100.00
9439;BME280;5176;42.622;25.386;2022-11-15T04:14:58;97754.53;;;10.70;100.00
9439;BME280;5176;42.622;25.386;2022-11-15T04:17:35;97739.06;;;10.66;100.00
9439;BME280;5176;42.622;25.386;2022-11-15T04:20:03;97746.41;;;10.75;100.00
9439;BME280;5176;42.622;25.386;2022-11-15T04:22:52;97728.47;;;10.67;100.00
9439;BME280;5176;42.622;25.386;2022-11-15T04:25:37;97755.19;;;10.74;100.00
9439;BME280;5176;42.622;25.386;2022-11-15T04:28:04;97755.03;;;10.77;100.00
9439;BME280;5176;42.622;25.386;2022-11-15T04:30:31;97748.09;;;10.76;100.00
9439;BME280;5176;42.622;25.386;2022-11-15T04:32:58;97755.19;;;10.74;100.00
9439;BME280;5176;42.622;25.386;2022-11-15T04:35:26;97747.84;;;10.80;100.00
9439;BME280;5176;42.622;25.386;2022-11-15T04:37:54;97755.59;;;10.82;100.00
9439;BME280;5176;42.622;25.386;2022-11-15T04:40:21;97749.72;;;10.78;100.00
9439;BME280;5176;42.622;25.386;2022-11-15T04:42:48;97749.72;;;10.78;100.00
9439;BME280;5176;42.622;25.386;2022-11-15T04:45:15;97738.44;;;10.76;100.00
9439;BME280;5176;42.622;25.386;2022-11-15T04:47:43;97746.81;;;10.83;100.00
9439;BME280;5176;42.622;25.386;2022-11-15T04:50:10;97739.88;;;10.82;100.00
9439;BME280;5176;42.622;25.386;2022-11-15T04:52:39;97750.31;;;10.83;100.00
9439;BME280;5176;42.622;25.386;2022-11-15T04:55:08;97747.84;;;10.80;100.00
9439;BME280;5176;42.622;25.386;2022-11-15T04:57:36;97744.28;;;10.81;100.00
9439;BME280;5176;42.622;25.386;2022-11-15T05:00:04;97736.50;;;10.80;100.00
9439;BME280;5176;42.622;25.386;2022-11-15T05:02:32;97743.44;;;10.81;100.00
9439;BME280;5176;42.622;25.386;2022-11-15T05:05:13;97739.81;;;10.83;100.00
9439;BME280;5176;42.622;25.386;2022-11-15T05:07:40;97739.72;;;10.85;100.00
9439;BME280;5176;42.622;25.386;2022-11-15T05:10:09;97730.56;;;10.76;100.00
9439;BME280;5176;42.622;25.386;2022-11-15T05:12:37;97731.25;;;10.80;100.00
9439;BME280;5176;42.622;25.386;2022-11-15T05:15:05;97735.75;;;10.78;100.00
9439;BME280;5176;42.622;25.386;2022-11-15T05:17:32;97735.81;;;10.76;100.00
9439;BME280;5176;42.622;25.386;2022-11-15T05:19:59;97737.34;;;10.80;100.00
9439;BME280;5176;42.622;25.386;2022-11-15T05:22:27;97727.94;;;10.76;100.00
9439;BME280;5176;42.622;25.386;2022-11-15T05:24:54;97738.03;;;10.84;100.00
9439;BME280;5176;42.622;25.386;2022-11-15T05:27:23;97733.78;;;10.81;100.00
9439;BME280;5176;42.622;25.386;2022-11-15T05:29:50;97732.00;;;10.82;100.00
9439;BME280;5176;42.622;25.386;2022-11-15T05:32:17;97735.41;;;10.84;100.00
9439;BME280;5176;42.622;25.386;2022-11-15T05:34:48;97737.25;;;10.82;100.00
9439;BME280;5176;42.622;25.386;2022-11-15T05:37:16;97740.06;;;10.79;100.00
9439;BME280;5176;42.622;25.386;2022-11-15T05:39:43;97744.19;;;10.83;100.00
9439;BME280;5176;42.622;25.386;2022-11-15T05:42:11;97744.03;;;10.86;100.00
9439;BME280;5176;42.622;25.386;2022-11-15T05:44:42;97752.91;;;10.83;100.00
9439;BME280;5176;42.622;25.386;2022-11-15T05:47:14;97745.97;;;10.82;100.00
9439;BME280;5176;42.622;25.386;2022-11-15T05:49:44;97748.34;;;10.87;100.00
9439;BME280;5176;42.622;25.386;2022-11-15T05:52:14;97750.88;;;10.88;100.00
9439;BME280;5176;42.622;25.386;2022-11-15T05:54:43;97759.66;;;10.87;100.00
9439;BME280;5176;42.622;25.386;2022-11-15T05:57:11;97752.75;;;10.86;100.00
9439;BME280;5176;42.622;25.386;2022-11-15T05:59:39;97757.22;;;10.84;100.00
9439;BME280;5176;42.622;25.386;2022-11-15T06:02:09;97753.75;;;10.84;100.00
9439;BME280;5176;42.622;25.386;2022-11-15T06:04:36;97756.53;;;10.81;100.00
9439;BME280;5176;42.622;25.386;2022-11-15T06:07:03;97761.97;;;10.78;100.00
9439;BME280;5176;42.622;25.386;2022-11-15T06:09:30;97765.94;;;10.85;100.00
9439;BME280;5176;42.622;25.386;2022-11-15T06:11:57;97762.72;;;10.80;100.00
9439;BME280;5176;42.622;25.386;2022-11-15T06:14:24;97764.41;;;10.81;100.00
9439;BME280;5176;42.622;25.386;2022-11-15T06:16:53;97764.41;;;10.81;100.00
9439;BME280;5176;42.622;25.386;2022-11-15T06:19:20;97766.69;;;10.87;100.00
9439;BME280;5176;42.622;25.386;2022-11-15T06:21:47;97771.19;;;10.85;100.00
9439;BME280;5176;42.622;25.386;2022-11-15T06:24:14;97765.25;;;10.81;100.00
9439;BME280;5176;42.622;25.386;2022-11-15T06:26:42;97764.41;;;10.81;100.00
9439;BME280;5176;42.622;25.386;2022-11-15T06:29:09;97772.03;;;10.85;100.00
9439;BME280;5176;42.622;25.386;2022-11-15T06:31:36;97771.28;;;10.83;100.00
9439;BME280;5176;42.622;25.386;2022-11-15T06:34:07;97765.16;;;10.83;100.00
9439;BME280;5176;42.622;25.386;2022-11-15T06:36:35;97771.00;;;10.88;100.00
9439;BME280;5176;42.622;25.386;2022-11-15T06:39:02;97771.78;;;10.90;100.00
9439;BME280;5176;42.622;25.386;2022-11-15T06:41:29;97767.53;;;10.87;100.00
9439;BME280;5176;42.622;25.386;2022-11-15T06:43:57;97773.03;;;10.83;100.00
9439;BME280;5176;42.622;25.386;2022-11-15T06:46:24;97771.00;;;10.88;100.00
9439;BME280;5176;42.622;25.386;2022-11-15T06:48:52;97767.28;;;10.92;100.00
9439;BME280;5176;42.622;25.386;2022-11-15T06:51:20;97763.63;;;10.95;100.00
9439;BME280;5176;42.622;25.386;2022-11-15T06:53:47;97771.41;;;10.96;100.00
9439;BME280;5176;42.622;25.386;2022-11-15T06:56:15;97771.41;;;10.96;100.00
9439;BME280;5176;42.622;25.386;2022-11-15T06:58:42;97762.34;;;11.02;100.00
9439;BME280;5176;42.622;25.386;2022-11-15T07:01:10;97767.44;;;11.05;100.00
9439;BME280;5176;42.622;25.386;2022-11-15T07:03:39;97765.06;;;11.00;100.00
9439;BME280;5176;42.622;25.386;2022-11-15T07:06:08;97763.38;;;10.99;100.00
9439;BME280;5176;42.622;25.386;2022-11-15T07:08:36;97763.97;;;11.04;100.00
9439;BME280;5176;42.622;25.386;2022-11-15T07:11:06;97758.88;;;11.01;100.00
9439;BME280;5176;42.622;25.386;2022-11-15T07:13:35;97763.97;;;11.04;100.00
9439;BME280;5176;42.622;25.386;2022-11-15T07:16:04;97760.50;;;11.04;100.00
9439;BME280;5176;42.622;25.386;2022-11-15T07:18:33;97764.63;;;11.08;100.00
9439;BME280;5176;42.622;25.386;2022-11-15T07:21:02;97745.59;;;11.04;100.00
9439;BME280;5176;42.622;25.386;2022-11-15T07:23:29;97752.25;;;11.10;100.00
9439;BME280;5176;42.622;25.386;2022-11-15T07:25:58;97753.78;;;11.14;100.00
9439;BME280;5176;42.622;25.386;2022-11-15T07:28:26;97756.03;;;11.20;100.00
9439;BME280;5176;42.622;25.386;2022-11-15T07:30:54;97753.16;;;11.25;100.00
9439;BME280;5176;42.622;25.386;2022-11-15T07:33:21;97760.94;;;11.26;100.00
9439;BME280;5176;42.622;25.386;2022-11-15T07:35:49;97760.00;;;11.27;100.00
9439;BME280;5176;42.622;25.386;2022-11-15T07:38:17;97758.91;;;11.31;100.00
9439;BME280;5176;42.622;25.386;2022-11-15T07:40:46;97750.84;;;11.34;100.00
9439;BME280;5176;42.622;25.386;2022-11-15T07:43:15;97758.44;;;11.39;100.00
9439;BME280;5176;42.622;25.386;2022-11-15T07:45:43;97749.81;;;11.37;100.00
9439;BME280;5176;42.622;25.386;2022-11-15T07:48:10;97750.31;;;11.43;100.00
9439;BME280;5176;42.622;25.386;2022-11-15T07:50:40;97749.25;;;11.32;100.00
9439;BME280;5176;42.622;25.386;2022-11-15T07:53:09;97748.78;;;11.39;100.00
9439;BME280;5176;42.622;25.386;2022-11-15T07:55:37;97754.13;;;11.38;100.00
9439;BME280;5176;42.622;25.386;2022-11-15T07:58:05;97747.09;;;11.38;100.00
9439;BME280;5176;42.622;25.386;2022-11-15T08:00:35;97753.00;;;11.42;100.00
9439;BME280;5176;42.622;25.386;2022-11-15T08:03:04;97747.69;;;11.43;100.00
9439;BME280;5176;42.622;25.386;2022-11-15T08:05:31;97756.13;;;11.49;100.00
9439;BME280;5176;42.622;25.386;2022-11-15T08:07:59;97753.22;;;11.53;100.00
9439;BME280;5176;42.622;25.386;2022-11-15T08:10:26;97757.91;;;11.62;100.00
9439;BME280;5176;42.622;25.386;2022-11-15T08:12:58;97755.97;;;11.66;100.00
9439;BME280;5176;42.622;25.386;2022-11-15T08:15:25;97755.13;;;11.65;100.00
9439;BME280;5176;42.622;25.386;2022-11-15T08:17:59;97753.91;;;11.71;98.98
9439;BME280;5176;42.622;25.386;2022-11-15T08:20:28;97756.44;;;11.72;98.59
9439;BME280;5176;42.622;25.386;2022-11-15T08:22:55;97749.66;;;11.68;99.46
9439;BME280;5176;42.622;25.386;2022-11-15T08:25:23;97751.34;;;11.69;100.00
9439;BME280;5176;42.622;25.386;2022-11-15T08:27:52;97749.88;;;11.80;100.00
9439;BME280;5176;42.622;25.386;2022-11-15T08:30:20;97753.00;;;11.86;99.19
9439;BME280;5176;42.622;25.386;2022-11-15T08:32:48;97755.38;;;11.91;98.09
9439;BME280;5176;42.622;25.386;2022-11-15T08:35:17;97747.38;;;11.92;97.21
9439;BME280;5176;42.622;25.386;2022-11-15T08:37:45;97747.19;;;11.95;97.23
9439;BME280;5176;42.622;25.386;2022-11-15T08:40:12;97750.75;;;11.94;96.31
9439;BME280;5176;42.622;25.386;2022-11-15T08:42:39;97737.63;;;11.94;96.01
9439;BME280;5176;42.622;25.386;2022-11-15T08:45:08;97736.03;;;11.92;95.37
9439;BME280;5176;42.622;25.386;2022-11-15T08:47:35;97737.72;;;11.93;95.54
9439;BME280;5176;42.622;25.386;2022-11-15T08:50:02;97736.03;;;11.92;95.13
9439;BME280;5176;42.622;25.386;2022-11-15T08:52:31;97733.03;;;11.98;93.11
9439;BME280;5176;42.622;25.386;2022-11-15T08:54:58;97725.69;;;12.03;94.33
9439;BME280;5176;42.622;25.386;2022-11-15T08:57:28;97721.38;;;12.02;93.58
9439;BME280;5176;42.622;25.386;2022-11-15T08:59:56;97729.63;;;12.10;91.05
9439;BME280;5176;42.622;25.386;2022-11-15T09:02:23;97724.56;;;12.07;91.55
9439;BME280;5176;42.622;25.386;2022-11-15T09:04:51;97727.47;;;12.03;90.88
9439;BME280;5176;42.622;25.386;2022-11-15T09:07:18;97722.22;;;12.03;90.60
9439;BME280;5176;42.622;25.386;2022-11-15T09:09:47;97711.81;;;12.01;91.37
9439;BME280;5176;42.622;25.386;2022-11-15T09:12:14;97716.97;;;12.03;90.36
9439;BME280;5176;42.622;25.386;2022-11-15T09:14:41;97713.31;;;12.05;89.19
9439;BME280;5176;42.622;25.386;2022-11-15T09:17:08;97706.06;;;12.09;89.54
9439;BME280;5176;42.622;25.386;2022-11-15T09:19:36;97681.31;;;11.98;88.33
9439;BME280;5176;42.622;25.386;2022-11-15T09:22:06;97694.72;;;12.08;88.72
9439;BME280;5176;42.622;25.386;2022-11-15T09:24:33;97684.88;;;12.12;88.15
9439;BME280;5176;42.622;25.386;2022-11-15T09:27:02;97683.72;;;12.16;88.02
9439;BME280;5176;42.622;25.386;2022-11-15T09:29:29;97679.41;;;12.15;87.13
9439;BME280;5176;42.622;25.386;2022-11-15T09:31:57;97682.59;;;12.20;86.86
9439;BME280;5176;42.622;25.386;2022-11-15T09:34:24;97672.09;;;12.20;85.02
9439;BME280;5176;42.622;25.386;2022-11-15T09:36:51;97667.66;;;12.20;83.83
9439;BME280;5176;42.622;25.386;2022-11-15T09:39:18;97669.34;;;12.21;84.06
9439;BME280;5176;42.622;25.386;2022-11-15T09:44:56;97661.28;;;12.24;82.28
9439;BME280;5176;42.622;25.386;2022-11-15T09:47:38;97663.59;;;12.29;80.66
9439;BME280;5176;42.622;25.386;2022-11-15T09:50:11;97652.34;;;12.27;79.98
9439;BME280;5176;42.622;25.386;2022-11-15T09:52:42;97654.88;;;12.28;80.26
9439;BME280;5176;42.622;25.386;2022-11-15T09:55:11;97646.38;;;12.25;79.37
9439;BME280;5176;42.622;25.386;2022-11-15T09:57:52;97644.75;;;12.22;78.79
9439;BME280;5176;42.622;25.386;2022-11-15T10:00:27;97644.47;;;12.27;78.25
9439;BME280;5176;42.622;25.386;2022-11-15T10:03:08;97640.06;;;12.27;78.70
9439;BME280;5176;42.622;25.386;2022-11-15T10:05:39;97627.84;;;12.26;79.53
9439;BME280;5176;42.622;25.386;2022-11-15T10:08:20;97629.53;;;12.27;79.67
9439;BME280;5176;42.622;25.386;2022-11-15T10:10:51;97625.13;;;12.28;79.98
9439;BME280;5176;42.622;25.386;2022-11-15T10:13:22;97623.03;;;12.33;79.92
9439;BME280;5176;42.622;25.386;2022-11-15T10:15:53;97623.88;;;12.34;77.60
9439;BME280;5176;42.622;25.386;2022-11-15T10:18:29;97617.50;;;12.38;77.38
9439;BME280;5176;42.622;25.386;2022-11-15T10:21:09;97612.13;;;12.39;78.02
9439;BME280;5176;42.622;25.386;2022-11-15T10:23:40;97615.31;;;12.44;78.24
9439;BME280;5176;42.622;25.386;2022-11-15T10:26:10;97606.09;;;12.51;77.60
9439;BME280;5176;42.622;25.386;2022-11-15T10:28:39;97608.50;;;12.54;77.72
9439;BME280;5176;42.622;25.386;2022-11-15T10:31:22;97595.91;;;12.60;76.84
9439;BME280;5176;42.622;25.386;2022-11-15T10:33:49;97597.34;;;12.64;76.03
9439;BME280;5176;42.622;25.386;2022-11-15T10:36:20;97593.16;;;12.61;75.50
9439;BME280;5176;42.622;25.386;2022-11-15T10:38:58;97591.66;;;12.57;74.50
9439;BME280;5176;42.622;25.386;2022-11-15T10:41:35;97593.38;;;12.58;75.03
9439;BME280;5176;42.622;25.386;2022-11-15T10:44:27;97588.44;;;12.66;75.38
9439;BME280;5176;42.622;25.386;2022-11-15T10:47:21;97577.63;;;12.71;74.73
9439;BME280;5176;42.622;25.386;2022-11-15T10:49:58;97580.25;;;12.71;74.39
9439;BME280;5176;42.622;25.386;2022-11-15T10:52:27;97583.59;;;12.73;74.60
9439;BME280;5176;42.622;25.386;2022-11-15T10:54:58;97582.88;;;12.71;73.66
9439;BME280;5176;42.622;25.386;2022-11-15T10:57:31;97577.06;;;12.66;73.68
9439;BME280;5176;42.622;25.386;2022-11-15T11:00:00;97581.69;;;12.62;73.72
9439;BME280;5176;42.622;25.386;2022-11-15T11:02:32;97577.19;;;12.64;74.09
9439;BME280;5176;42.622;25.386;2022-11-15T11:05:01;97567.69;;;12.62;73.63
9439;BME280;5176;42.622;25.386;2022-11-15T11:07:31;97564.22;;;12.61;73.19
9439;BME280;5176;42.622;25.386;2022-11-15T11:10:01;97570.44;;;12.60;73.26
9439;BME280;5176;42.622;25.386;2022-11-15T11:12:30;97567.91;;;12.59;73.17
9439;BME280;5176;42.622;25.386;2022-11-15T11:14:59;97556.63;;;12.57;71.85
9439;BME280;5176;42.622;25.386;2022-11-15T11:17:36;97558.78;;;12.64;71.80
9439;BME280;5176;42.622;25.386;2022-11-15T11:20:11;97555.28;;;12.64;71.71
9439;BME280;5176;42.622;25.386;2022-11-15T11:23:01;97556.78;;;12.68;72.23
9439;BME280;5176;42.622;25.386;2022-11-15T11:25:34;97554.44;;;12.63;72.15
9439;BME280;5176;42.622;25.386;2022-11-15T11:28:21;97554.97;;;12.68;72.41
9439;BME280;5176;42.622;25.386;2022-11-15T11:31:00;97548.25;;;12.77;71.52
9439;BME280;5176;42.622;25.386;2022-11-15T11:33:39;97529.22;;;12.73;71.46
9439;BME280;5176;42.622;25.386;2022-11-15T11:36:17;97531.22;;;12.82;71.91
9439;BME280;5176;42.622;25.386;2022-11-15T11:38:56;97536.47;;;12.82;71.34
9439;BME280;5176;42.622;25.386;2022-11-15T11:41:39;97527.31;;;12.88;72.32
9439;BME280;5176;42.622;25.386;2022-11-15T11:44:21;97523.00;;;12.87;70.72
9439;BME280;5176;42.622;25.386;2022-11-15T11:46:55;97514.28;;;12.87;70.33
9439;BME280;5176;42.622;25.386;2022-11-15T11:49:31;97518.28;;;12.92;70.97
9439;BME280;5176;42.622;25.386;2022-11-15T11:52:05;97516.38;;;12.94;71.17
9439;BME280;5176;42.622;25.386;2022-11-15T11:54:42;97513.22;;;12.89;70.30
9439;BME280;5176;42.622;25.386;2022-11-15T11:57:17;97506.16;;;12.90;70.30
9439;BME280;5176;42.622;25.386;2022-11-15T11:59:58;97502.59;;;12.91;70.01
9439;BME280;5176;42.622;25.386;2022-11-15T12:02:29;97500.28;;;12.86;69.23
9439;BME280;5176;42.622;25.386;2022-11-15T12:05:08;97503.44;;;12.78;70.62
9439;BME280;5176;42.622;25.386;2022-11-15T12:07:39;97500.38;;;12.72;71.15
9439;BME280;5176;42.622;25.386;2022-11-15T12:10:18;97492.50;;;12.72;70.57
9439;BME280;5176;42.622;25.386;2022-11-15T12:12:52;97490.59;;;12.74;70.53
9439;BME280;5176;42.622;25.386;2022-11-15T12:15:23;97484.09;;;12.79;70.25
9439;BME280;5176;42.622;25.386;2022-11-15T12:17:52;97482.28;;;12.80;70.52
9439;BME280;5176;42.622;25.386;2022-11-15T12:20:23;97474.94;;;12.85;70.53
9439;BME280;5176;42.622;25.386;2022-11-15T12:22:55;97480.59;;;12.92;70.82
9439;BME280;5176;42.622;25.386;2022-11-15T12:25:28;97473.22;;;12.97;70.38
9439;BME280;5176;42.622;25.386;2022-11-15T12:28:01;97464.16;;;13.01;70.33
9439;BME280;5176;42.622;25.386;2022-11-15T12:30:41;97460.28;;;12.94;69.77
9439;BME280;5176;42.622;25.386;2022-11-15T12:33:29;97459.22;;;12.96;70.59
9439;BME280;5176;42.622;25.386;2022-11-15T12:36:03;97456.38;;;12.99;70.46
9439;BME280;5176;42.622;25.386;2022-11-15T12:38:53;97457.22;;;13.00;70.24
9439;BME280;5176;42.622;25.386;2022-11-15T12:41:22;97454.59;;;13.00;69.96
9439;BME280;5176;42.622;25.386;2022-11-15T12:43:50;97444.38;;;13.08;71.00
9439;BME280;5176;42.622;25.386;2022-11-15T12:46:58;97439.81;;;13.10;70.77
9439;BME280;5176;42.622;25.386;2022-11-15T12:52:17;97442.03;;;13.16;70.28
9439;BME280;5176;42.622;25.386;2022-11-15T12:54:59;97437.41;;;13.20;69.68
9439;BME280;5176;42.622;25.386;2022-11-15T12:57:38;97426.88;;;13.20;69.32
9439;BME280;5176;42.622;25.386;2022-11-15T13:03:23;97434.97;;;13.29;69.58
9439;BME280;5176;42.622;25.386;2022-11-15T13:06:04;97433.94;;;13.32;68.92
9439;BME280;5176;42.622;25.386;2022-11-15T13:08:44;97433.56;;;13.36;68.95
9439;BME280;5176;42.622;25.386;2022-11-15T13:11:50;97421.88;;;13.41;69.09
9439;BME280;5176;42.622;25.386;2022-11-15T13:14:43;97426.59;;;13.48;68.39
9439;BME280;5176;42.622;25.386;2022-11-15T13:17:29;97418.69;;;13.48;67.50
9439;BME280;5176;42.622;25.386;2022-11-15T13:20:02;97422.16;;;13.49;67.58
9439;BME280;5176;42.622;25.386;2022-11-15T13:22:39;97419.41;;;13.50;67.21
9439;BME280;5176;42.622;25.386;2022-11-15T13:25:44;97420.47;;;13.48;68.18
9439;BME280;5176;42.622;25.386;2022-11-15T13:28:21;97403.69;;;13.38;68.20
9439;BME280;5176;42.622;25.386;2022-11-15T13:30:52;97411.88;;;13.46;68.59
9439;BME280;5176;42.622;25.386;2022-11-15T13:33:22;97404.81;;;13.46;68.74
9439;BME280;5176;42.622;25.386;2022-11-15T13:35:52;97405.41;;;13.50;69.19
9439;BME280;5176;42.622;25.386;2022-11-15T13:38:26;97402.78;;;13.50;69.45